sensor_id;sensor_type;location;lat;lon;timestamp;P1;durP1;ratioP1;P2;durP2;ratioP2
19800;SDS011;10060;48.274;12.214;2023-04-03T00:00:31;9.73;;;6.47;;
19800;SDS011;10060;48.274;12.214;2023-04-03T00:03:35;9.63;;;6.37;;
19800;SDS011;10060;48.274;12.214;2023-04-03T00:06:41;7.27;;;5.93;;
19800;SDS011;10060;48.274;12.214;2023-04-03T00:09:43;13.20;;;6.30;;
19800;SDS011;10060;48.274;12.214;2023-04-03T00:12:45;7.83;;;5.87;;
19800;SDS011;10060;48.274;12.214;2023-04-03T00:15:47;7.37;;;6.30;;
19800;SDS011;10060;48.274;12.214;2023-04-03T00:18:51;7.33;;;6.13;;
19800;SDS011;10060;48.274;12.214;2023-04-03T00:21:53;7.37;;;6.20;;
19800;SDS011;10060;48.274;12.214;2023-04-03T00:24:55;7.70;;;6.10;;
19800;SDS011;10060;48.274;12.214;2023-04-03T00:27:57;6.77;;;5.87;;
19800;SDS011;10060;48.274;12.214;2023-04-03T00:31:00;7.87;;;6.10;;
19800;SDS011;10060;48.274;12.214;2023-04-03T00:34:03;11.10;;;6.70;;
19800;SDS011;10060;48.274;12.214;2023-04-03T00:37:05;8.00;;;5.87;;
19800;SDS011;10060;48.274;12.214;2023-04-03T00:40:08;6.70;;;5.90;;
19800;SDS011;10060;48.274;12.214;2023-04-03T00:43:14;7.00;;;5.80;;
19800;SDS011;10060;48.274;12.214;2023-04-03T00:46:16;7.63;;;5.80;;
19800;SDS011;10060;48.274;12.214;2023-04-03T00:49:20;6.93;;;5.77;;
19800;SDS011;10060;48.274;12.214;2023-04-03T00:52:25;9.63;;;6.00;;
19800;SDS011;10060;48.274;12.214;2023-04-03T00:55:29;7.00;;;5.80;;
19800;SDS011;10060;48.274;12.214;2023-04-03T00:58:33;7.00;;;6.00;;
19800;SDS011;10060;48.274;12.214;2023-04-03T01:01:36;8.13;;;5.53;;
19800;SDS011;10060;48.274;12.214;2023-04-03T01:04:41;6.83;;;5.50;;
19800;SDS011;10060;48.274;12.214;2023-04-03T01:07:44;7.33;;;5.20;;
19800;SDS011;10060;48.274;12.214;2023-04-03T01:10:47;7.97;;;6.10;;
19800;SDS011;10060;48.274;12.214;2023-04-03T01:13:49;6.33;;;5.67;;
19800;SDS011;10060;48.274;12.214;2023-04-03T01:16:52;6.20;;;5.47;;
19800;SDS011;10060;48.274;12.214;2023-04-03T01:20:01;6.57;;;5.30;;
19800;SDS011;10060;48.274;12.214;2023-04-03T01:23:06;7.43;;;5.17;;
19800;SDS011;10060;48.274;12.214;2023-04-03T01:26:13;8.07;;;5.43;;
19800;SDS011;10060;48.274;12.214;2023-04-03T01:29:16;6.23;;;5.40;;
19800;SDS011;10060;48.274;12.214;2023-04-03T01:32:19;8.20;;;5.83;;
19800;SDS011;10060;48.274;12.214;2023-04-03T01:35:23;7.83;;;5.57;;
19800;SDS011;10060;48.274;12.214;2023-04-03T01:38:29;9.83;;;5.63;;
19800;SDS011;10060;48.274;12.214;2023-04-03T01:41:31;6.07;;;5.03;;
19800;SDS011;10060;48.274;12.214;2023-04-03T01:44:33;6.27;;;5.43;;
19800;SDS011;10060;48.274;12.214;2023-04-03T01:47:37;7.63;;;5.67;;
19800;SDS011;10060;48.274;12.214;2023-04-03T01:50:39;7.40;;;5.37;;
19800;SDS011;10060;48.274;12.214;2023-04-03T01:53:41;6.90;;;5.60;;
19800;SDS011;10060;48.274;12.214;2023-04-03T01:56:44;6.60;;;4.93;;
19800;SDS011;10060;48.274;12.214;2023-04-03T01:59:46;5.53;;;4.57;;
19800;SDS011;10060;48.274;12.214;2023-04-03T02:02:49;6.57;;;4.73;;
19800;SDS011;10060;48.274;12.214;2023-04-03T02:05:52;6.57;;;5.10;;
19800;SDS011;10060;48.274;12.214;2023-04-03T02:08:54;6.67;;;5.33;;
19800;SDS011;10060;48.274;12.214;2023-04-03T02:11:56;9.60;;;5.80;;
19800;SDS011;10060;48.274;12.214;2023-04-03T02:14:59;8.83;;;5.93;;
19800;SDS011;10060;48.274;12.214;2023-04-03T02:18:02;8.97;;;5.67;;
19800;SDS011;10060;48.274;12.214;2023-04-03T02:21:05;5.80;;;4.80;;
19800;SDS011;10060;48.274;12.214;2023-04-03T02:24:07;5.60;;;4.67;;
19800;SDS011;10060;48.274;12.214;2023-04-03T02:27:09;6.77;;;5.30;;
19800;SDS011;10060;48.274;12.214;2023-04-03T02:30:11;7.20;;;6.13;;
19800;SDS011;10060;48.274;12.214;2023-04-03T02:33:16;5.60;;;4.77;;
19800;SDS011;10060;48.274;12.214;2023-04-03T02:36:18;7.77;;;5.63;;
19800;SDS011;10060;48.274;12.214;2023-04-03T02:39:21;6.60;;;5.77;;
19800;SDS011;10060;48.274;12.214;2023-04-03T02:42:23;8.93;;;5.70;;
19800;SDS011;10060;48.274;12.214;2023-04-03T02:45:25;6.63;;;5.73;;
19800;SDS011;10060;48.274;12.214;2023-04-03T02:48:29;6.33;;;5.20;;
19800;SDS011;10060;48.274;12.214;2023-04-03T02:51:31;6.30;;;5.63;;
19800;SDS011;10060;48.274;12.214;2023-04-03T02:54:34;7.83;;;5.60;;
19800;SDS011;10060;48.274;12.214;2023-04-03T02:57:36;6.63;;;5.60;;
19800;SDS011;10060;48.274;12.214;2023-04-03T03:00:38;9.03;;;5.97;;
19800;SDS011;10060;48.274;12.214;2023-04-03T03:03:41;7.00;;;5.87;;
19800;SDS011;10060;48.274;12.214;2023-04-03T03:06:44;8.33;;;6.27;;
19800;SDS011;10060;48.274;12.214;2023-04-03T03:09:46;7.97;;;5.97;;
19800;SDS011;10060;48.274;12.214;2023-04-03T03:12:48;6.60;;;5.90;;
19800;SDS011;10060;48.274;12.214;2023-04-03T03:15:51;7.80;;;6.30;;
19800;SDS011;10060;48.274;12.214;2023-04-03T03:18:54;8.13;;;6.57;;
19800;SDS011;10060;48.274;12.214;2023-04-03T03:21:56;6.57;;;5.73;;
19800;SDS011;10060;48.274;12.214;2023-04-03T03:24:58;7.10;;;6.07;;
19800;SDS011;10060;48.274;12.214;2023-04-03T03:28:01;7.20;;;5.80;;
19800;SDS011;10060;48.274;12.214;2023-04-03T03:31:03;8.03;;;6.17;;
19800;SDS011;10060;48.274;12.214;2023-04-03T03:34:07;7.03;;;5.70;;
19800;SDS011;10060;48.274;12.214;2023-04-03T03:37:09;8.30;;;6.13;;
19800;SDS011;10060;48.274;12.214;2023-04-03T03:40:11;6.60;;;5.60;;
19800;SDS011;10060;48.274;12.214;2023-04-03T03:43:13;9.10;;;5.90;;
19800;SDS011;10060;48.274;12.214;2023-04-03T03:46:15;9.20;;;6.03;;
19800;SDS011;10060;48.274;12.214;2023-04-03T03:49:19;6.80;;;5.53;;
19800;SDS011;10060;48.274;12.214;2023-04-03T03:52:21;7.60;;;6.00;;
19800;SDS011;10060;48.274;12.214;2023-04-03T03:55:23;6.40;;;5.60;;
19800;SDS011;10060;48.274;12.214;2023-04-03T03:58:26;6.87;;;6.00;;
19800;SDS011;10060;48.274;12.214;2023-04-03T04:01:28;8.80;;;5.83;;
19800;SDS011;10060;48.274;12.214;2023-04-03T04:04:31;7.77;;;5.63;;
19800;SDS011;10060;48.274;12.214;2023-04-03T04:07:34;6.47;;;5.50;;
19800;SDS011;10060;48.274;12.214;2023-04-03T04:10:36;6.93;;;5.73;;
19800;SDS011;10060;48.274;12.214;2023-04-03T04:13:39;8.97;;;5.70;;
19800;SDS011;10060;48.274;12.214;2023-04-03T04:16:41;7.67;;;6.07;;
19800;SDS011;10060;48.274;12.214;2023-04-03T04:19:44;6.73;;;5.77;;
19800;SDS011;10060;48.274;12.214;2023-04-03T04:22:47;10.63;;;5.67;;
19800;SDS011;10060;48.274;12.214;2023-04-03T04:25:49;8.03;;;5.97;;
19800;SDS011;10060;48.274;12.214;2023-04-03T04:28:51;7.73;;;5.20;;
19800;SDS011;10060;48.274;12.214;2023-04-03T04:31:53;8.93;;;5.70;;
19800;SDS011;10060;48.274;12.214;2023-04-03T04:34:56;9.37;;;5.40;;
19800;SDS011;10060;48.274;12.214;2023-04-03T04:37:59;7.67;;;5.57;;
19800;SDS011;10060;48.274;12.214;2023-04-03T04:41:01;7.60;;;5.57;;
19800;SDS011;10060;48.274;12.214;2023-04-03T04:44:03;7.30;;;5.17;;
19800;SDS011;10060;48.274;12.214;2023-04-03T04:47:05;8.40;;;5.53;;
19800;SDS011;10060;48.274;12.214;2023-04-03T04:50:09;6.93;;;5.50;;
19800;SDS011;10060;48.274;12.214;2023-04-03T04:53:12;7.27;;;5.90;;
19800;SDS011;10060;48.274;12.214;2023-04-03T04:56:14;8.43;;;6.07;;
19800;SDS011;10060;48.274;12.214;2023-04-03T04:59:16;7.03;;;5.40;;
19800;SDS011;10060;48.274;12.214;2023-04-03T05:02:18;7.50;;;5.60;;
19800;SDS011;10060;48.274;12.214;2023-04-03T05:05:22;9.47;;;5.47;;
19800;SDS011;10060;48.274;12.214;2023-04-03T05:08:24;8.07;;;6.17;;
19800;SDS011;10060;48.274;12.214;2023-04-03T05:11:27;8.37;;;6.03;;
19800;SDS011;10060;48.274;12.214;2023-04-03T05:14:29;6.53;;;5.63;;
19800;SDS011;10060;48.274;12.214;2023-04-03T05:17:31;8.77;;;6.17;;
19800;SDS011;10060;48.274;12.214;2023-04-03T05:20:34;7.63;;;5.40;;
19800;SDS011;10060;48.274;12.214;2023-04-03T05:23:36;7.47;;;4.73;;
19800;SDS011;10060;48.274;12.214;2023-04-03T05:26:39;6.20;;;5.33;;
19800;SDS011;10060;48.274;12.214;2023-04-03T05:29:41;7.07;;;5.43;;
19800;SDS011;10060;48.274;12.214;2023-04-03T05:32:43;8.07;;;5.53;;
19800;SDS011;10060;48.274;12.214;2023-04-03T05:35:47;6.53;;;5.43;;
19800;SDS011;10060;48.274;12.214;2023-04-03T05:38:49;6.63;;;5.10;;
19800;SDS011;10060;48.274;12.214;2023-04-03T05:41:51;11.70;;;6.20;;
19800;SDS011;10060;48.274;12.214;2023-04-03T05:44:53;12.40;;;6.37;;
19800;SDS011;10060;48.274;12.214;2023-04-03T05:47:55;8.37;;;5.27;;
19800;SDS011;10060;48.274;12.214;2023-04-03T05:50:59;8.47;;;5.57;;
19800;SDS011;10060;48.274;12.214;2023-04-03T05:54:03;7.67;;;4.83;;
19800;SDS011;10060;48.274;12.214;2023-04-03T05:57:07;6.43;;;5.13;;
19800;SDS011;10060;48.274;12.214;2023-04-03T06:00:11;6.90;;;5.50;;
19800;SDS011;10060;48.274;12.214;2023-04-03T06:03:14;7.23;;;5.33;;
19800;SDS011;10060;48.274;12.214;2023-04-03T06:06:18;7.67;;;5.20;;
19800;SDS011;10060;48.274;12.214;2023-04-03T06:09:20;9.50;;;5.43;;
19800;SDS011;10060;48.274;12.214;2023-04-03T06:12:22;9.57;;;5.03;;
19800;SDS011;10060;48.274;12.214;2023-04-03T06:15:25;8.77;;;5.13;;
19800;SDS011;10060;48.274;12.214;2023-04-03T06:18:27;9.07;;;5.60;;
19800;SDS011;10060;48.274;12.214;2023-04-03T06:21:31;8.00;;;5.43;;
19800;SDS011;10060;48.274;12.214;2023-04-03T06:24:33;7.43;;;5.80;;
19800;SDS011;10060;48.274;12.214;2023-04-03T06:27:36;6.20;;;5.40;;
19800;SDS011;10060;48.274;12.214;2023-04-03T06:30:38;9.00;;;5.67;;
19800;SDS011;10060;48.274;12.214;2023-04-03T06:33:40;8.00;;;5.80;;
19800;SDS011;10060;48.274;12.214;2023-04-03T06:36:43;10.73;;;6.53;;
19800;SDS011;10060;48.274;12.214;2023-04-03T06:39:46;8.47;;;5.87;;
19800;SDS011;10060;48.274;12.214;2023-04-03T06:42:48;11.07;;;5.80;;
19800;SDS011;10060;48.274;12.214;2023-04-03T06:45:50;10.53;;;7.47;;
19800;SDS011;10060;48.274;12.214;2023-04-03T06:48:52;9.27;;;6.77;;
19800;SDS011;10060;48.274;12.214;2023-04-03T06:51:56;11.70;;;7.63;;
19800;SDS011;10060;48.274;12.214;2023-04-03T06:54:58;11.53;;;7.60;;
19800;SDS011;10060;48.274;12.214;2023-04-03T06:58:00;12.03;;;7.37;;
19800;SDS011;10060;48.274;12.214;2023-04-03T07:01:03;12.50;;;7.47;;
19800;SDS011;10060;48.274;12.214;2023-04-03T07:04:06;11.43;;;6.77;;
19800;SDS011;10060;48.274;12.214;2023-04-03T07:07:09;10.43;;;7.33;;
19800;SDS011;10060;48.274;12.214;2023-04-03T07:10:12;9.27;;;6.77;;
19800;SDS011;10060;48.274;12.214;2023-04-03T07:13:14;11.63;;;6.97;;
19800;SDS011;10060;48.274;12.214;2023-04-03T07:16:16;15.00;;;7.07;;
19800;SDS011;10060;48.274;12.214;2023-04-03T07:19:18;9.60;;;7.07;;
19800;SDS011;10060;48.274;12.214;2023-04-03T07:22:22;9.67;;;6.83;;
19800;SDS011;10060;48.274;12.214;2023-04-03T07:25:25;10.17;;;6.90;;
19800;SDS011;10060;48.274;12.214;2023-04-03T07:28:27;8.80;;;6.83;;
19800;SDS011;10060;48.274;12.214;2023-04-03T07:31:29;9.77;;;7.03;;
19800;SDS011;10060;48.274;12.214;2023-04-03T07:34:31;9.13;;;6.37;;
19800;SDS011;10060;48.274;12.214;2023-04-03T07:37:35;9.07;;;6.80;;
19800;SDS011;10060;48.274;12.214;2023-04-03T07:40:37;9.70;;;6.90;;
19800;SDS011;10060;48.274;12.214;2023-04-03T07:43:40;10.10;;;7.47;;
19800;SDS011;10060;48.274;12.214;2023-04-03T07:46:42;10.17;;;6.87;;
19800;SDS011;10060;48.274;12.214;2023-04-03T07:49:44;12.27;;;7.03;;
19800;SDS011;10060;48.274;12.214;2023-04-03T07:52:47;13.17;;;7.00;;
19800;SDS011;10060;48.274;12.214;2023-04-03T07:55:50;10.83;;;6.77;;
19800;SDS011;10060;48.274;12.214;2023-04-03T07:58:55;10.57;;;7.00;;
19800;SDS011;10060;48.274;12.214;2023-04-03T08:01:57;9.00;;;6.67;;
19800;SDS011;10060;48.274;12.214;2023-04-03T08:04:59;9.93;;;7.30;;
19800;SDS011;10060;48.274;12.214;2023-04-03T08:08:03;13.77;;;9.13;;
19800;SDS011;10060;48.274;12.214;2023-04-03T08:11:05;10.77;;;7.67;;
19800;SDS011;10060;48.274;12.214;2023-04-03T08:14:08;10.20;;;7.60;;
19800;SDS011;10060;48.274;12.214;2023-04-03T08:17:15;10.80;;;7.63;;
19800;SDS011;10060;48.274;12.214;2023-04-03T08:20:17;11.20;;;7.70;;
19800;SDS011;10060;48.274;12.214;2023-04-03T08:23:20;11.63;;;7.87;;
19800;SDS011;10060;48.274;12.214;2023-04-03T08:26:23;9.73;;;7.13;;
19800;SDS011;10060;48.274;12.214;2023-04-03T08:29:26;7.00;;;6.30;;
19800;SDS011;10060;48.274;12.214;2023-04-03T08:32:28;10.27;;;6.93;;
19800;SDS011;10060;48.274;12.214;2023-04-03T08:35:30;10.03;;;7.07;;
19800;SDS011;10060;48.274;12.214;2023-04-03T08:38:34;7.63;;;6.20;;
19800;SDS011;10060;48.274;12.214;2023-04-03T08:41:37;9.73;;;7.00;;
19800;SDS011;10060;48.274;12.214;2023-04-03T08:44:42;8.57;;;5.80;;
19800;SDS011;10060;48.274;12.214;2023-04-03T08:47:47;7.50;;;5.87;;
19800;SDS011;10060;48.274;12.214;2023-04-03T08:50:51;6.60;;;5.90;;
19800;SDS011;10060;48.274;12.214;2023-04-03T08:53:58;8.27;;;6.03;;
19800;SDS011;10060;48.274;12.214;2023-04-03T08:57:04;12.50;;;6.30;;
19800;SDS011;10060;48.274;12.214;2023-04-03T09:00:13;14.43;;;6.20;;
19800;SDS011;10060;48.274;12.214;2023-04-03T09:03:18;7.23;;;5.80;;
19800;SDS011;10060;48.274;12.214;2023-04-03T09:06:21;7.60;;;6.30;;
19800;SDS011;10060;48.274;12.214;2023-04-03T09:09:28;7.37;;;6.00;;
19800;SDS011;10060;48.274;12.214;2023-04-03T09:12:34;7.50;;;6.10;;
19800;SDS011;10060;48.274;12.214;2023-04-03T09:15:39;9.57;;;7.63;;
19800;SDS011;10060;48.274;12.214;2023-04-03T09:18:42;8.73;;;6.50;;
19800;SDS011;10060;48.274;12.214;2023-04-03T09:21:47;10.03;;;7.93;;
19800;SDS011;10060;48.274;12.214;2023-04-03T09:24:52;8.23;;;6.73;;
19800;SDS011;10060;48.274;12.214;2023-04-03T09:27:57;9.87;;;7.17;;
19800;SDS011;10060;48.274;12.214;2023-04-03T09:30:59;8.03;;;6.30;;
19800;SDS011;10060;48.274;12.214;2023-04-03T09:34:02;7.10;;;5.67;;
19800;SDS011;10060;48.274;12.214;2023-04-03T09:37:05;6.97;;;6.10;;
19800;SDS011;10060;48.274;12.214;2023-04-03T09:40:29;10.50;;;6.70;;
19800;SDS011;10060;48.274;12.214;2023-04-03T09:43:32;8.07;;;6.57;;
19800;SDS011;10060;48.274;12.214;2023-04-03T09:46:35;8.90;;;6.83;;
19800;SDS011;10060;48.274;12.214;2023-04-03T09:49:39;7.43;;;6.67;;
19800;SDS011;10060;48.274;12.214;2023-04-03T09:52:41;8.77;;;5.63;;
19800;SDS011;10060;48.274;12.214;2023-04-03T09:55:45;10.93;;;7.10;;
19800;SDS011;10060;48.274;12.214;2023-04-03T09:58:48;9.03;;;5.63;;
19800;SDS011;10060;48.274;12.214;2023-04-03T10:01:57;9.20;;;6.40;;
19800;SDS011;10060;48.274;12.214;2023-04-03T10:05:00;11.77;;;7.23;;
19800;SDS011;10060;48.274;12.214;2023-04-03T10:08:09;5.93;;;5.17;;
19800;SDS011;10060;48.274;12.214;2023-04-03T10:11:13;7.83;;;5.13;;
19800;SDS011;10060;48.274;12.214;2023-04-03T10:14:17;7.17;;;5.17;;
19800;SDS011;10060;48.274;12.214;2023-04-03T10:17:21;12.77;;;5.03;;
19800;SDS011;10060;48.274;12.214;2023-04-03T10:20:31;7.30;;;5.63;;
19800;SDS011;10060;48.274;12.214;2023-04-03T10:23:37;6.97;;;5.20;;
19800;SDS011;10060;48.274;12.214;2023-04-03T10:26:47;6.03;;;5.10;;
19800;SDS011;10060;48.274;12.214;2023-04-03T10:29:53;6.33;;;4.47;;
19800;SDS011;10060;48.274;12.214;2023-04-03T10:33:03;9.97;;;5.10;;
19800;SDS011;10060;48.274;12.214;2023-04-03T10:36:08;6.93;;;5.50;;
19800;SDS011;10060;48.274;12.214;2023-04-03T10:39:15;7.23;;;5.00;;
19800;SDS011;10060;48.274;12.214;2023-04-03T10:42:22;9.47;;;5.30;;
19800;SDS011;10060;48.274;12.214;2023-04-03T10:45:26;6.53;;;4.80;;
19800;SDS011;10060;48.274;12.214;2023-04-03T10:48:48;10.93;;;4.40;;
19800;SDS011;10060;48.274;12.214;2023-04-03T10:51:54;5.63;;;4.63;;
19800;SDS011;10060;48.274;12.214;2023-04-03T10:55:02;6.50;;;4.17;;
19800;SDS011;10060;48.274;12.214;2023-04-03T10:58:10;7.87;;;4.30;;
19800;SDS011;10060;48.274;12.214;2023-04-03T11:01:16;6.80;;;4.80;;
19800;SDS011;10060;48.274;12.214;2023-04-03T11:04:20;6.20;;;4.10;;
19800;SDS011;10060;48.274;12.214;2023-04-03T11:07:24;5.43;;;3.00;;
19800;SDS011;10060;48.274;12.214;2023-04-03T11:10:30;4.93;;;3.57;;
19800;SDS011;10060;48.274;12.214;2023-04-03T11:13:39;6.33;;;3.30;;
19800;SDS011;10060;48.274;12.214;2023-04-03T11:16:43;4.63;;;3.30;;
19800;SDS011;10060;48.274;12.214;2023-04-03T11:19:47;4.43;;;3.20;;
19800;SDS011;10060;48.274;12.214;2023-04-03T11:22:53;4.57;;;3.20;;
19800;SDS011;10060;48.274;12.214;2023-04-03T11:26:01;6.73;;;3.10;;
19800;SDS011;10060;48.274;12.214;2023-04-03T11:29:10;8.20;;;2.73;;
19800;SDS011;10060;48.274;12.214;2023-04-03T11:32:20;4.33;;;2.83;;
19800;SDS011;10060;48.274;12.214;2023-04-03T11:35:28;2.93;;;2.63;;
19800;SDS011;10060;48.274;12.214;2023-04-03T11:38:33;3.73;;;2.70;;
19800;SDS011;10060;48.274;12.214;2023-04-03T11:41:36;4.13;;;2.77;;
19800;SDS011;10060;48.274;12.214;2023-04-03T11:44:40;5.10;;;3.27;;
19800;SDS011;10060;48.274;12.214;2023-04-03T11:47:46;6.87;;;2.50;;
19800;SDS011;10060;48.274;12.214;2023-04-03T11:50:48;3.80;;;2.87;;
19800;SDS011;10060;48.274;12.214;2023-04-03T11:53:51;5.63;;;2.60;;
19800;SDS011;10060;48.274;12.214;2023-04-03T11:56:53;4.07;;;2.80;;
19800;SDS011;10060;48.274;12.214;2023-04-03T11:59:57;4.30;;;2.63;;
19800;SDS011;10060;48.274;12.214;2023-04-03T12:02:59;4.10;;;2.83;;
19800;SDS011;10060;48.274;12.214;2023-04-03T12:09:26;2.60;;;2.40;;
19800;SDS011;10060;48.274;12.214;2023-04-03T12:12:33;3.20;;;2.50;;
19800;SDS011;10060;48.274;12.214;2023-04-03T12:18:58;3.10;;;2.63;;
19800;SDS011;10060;48.274;12.214;2023-04-03T12:22:07;3.43;;;2.60;;
19800;SDS011;10060;48.274;12.214;2023-04-03T12:28:26;3.47;;;2.67;;
19800;SDS011;10060;48.274;12.214;2023-04-03T12:31:32;2.63;;;2.07;;
19800;SDS011;10060;48.274;12.214;2023-04-03T12:34:43;2.70;;;2.03;;
19800;SDS011;10060;48.274;12.214;2023-04-03T12:38:13;2.30;;;2.10;;
19800;SDS011;10060;48.274;12.214;2023-04-03T12:41:19;3.97;;;2.70;;
19800;SDS011;10060;48.274;12.214;2023-04-03T12:44:26;3.77;;;2.40;;
19800;SDS011;10060;48.274;12.214;2023-04-03T12:47:29;2.27;;;2.03;;
19800;SDS011;10060;48.274;12.214;2023-04-03T12:50:35;4.47;;;2.43;;
19800;SDS011;10060;48.274;12.214;2023-04-03T12:53:37;6.67;;;2.90;;
19800;SDS011;10060;48.274;12.214;2023-04-03T12:56:39;3.30;;;2.20;;
19800;SDS011;10060;48.274;12.214;2023-04-03T12:59:41;3.80;;;2.50;;
19800;SDS011;10060;48.274;12.214;2023-04-03T13:02:46;3.13;;;2.50;;
19800;SDS011;10060;48.274;12.214;2023-04-03T13:05:50;3.00;;;2.53;;
19800;SDS011;10060;48.274;12.214;2023-04-03T13:08:53;8.63;;;5.70;;
19800;SDS011;10060;48.274;12.214;2023-04-03T13:11:57;4.57;;;3.10;;
19800;SDS011;10060;48.274;12.214;2023-04-03T13:15:01;3.20;;;2.63;;
19800;SDS011;10060;48.274;12.214;2023-04-03T13:18:04;3.47;;;2.97;;
19800;SDS011;10060;48.274;12.214;2023-04-03T13:21:10;4.17;;;2.63;;
19800;SDS011;10060;48.274;12.214;2023-04-03T13:24:15;4.57;;;2.73;;
19800;SDS011;10060;48.274;12.214;2023-04-03T13:27:17;2.77;;;2.43;;
19800;SDS011;10060;48.274;12.214;2023-04-03T13:30:21;3.10;;;2.60;;
19800;SDS011;10060;48.274;12.214;2023-04-03T13:33:26;5.90;;;3.73;;
19800;SDS011;10060;48.274;12.214;2023-04-03T13:36:31;4.20;;;2.43;;
19800;SDS011;10060;48.274;12.214;2023-04-03T13:39:35;3.37;;;2.57;;
19800;SDS011;10060;48.274;12.214;2023-04-03T13:42:38;2.70;;;2.13;;
19800;SDS011;10060;48.274;12.214;2023-04-03T13:45:42;4.23;;;2.37;;
19800;SDS011;10060;48.274;12.214;2023-04-03T13:48:55;4.10;;;2.30;;
19800;SDS011;10060;48.274;12.214;2023-04-03T13:51:59;3.40;;;2.40;;
19800;SDS011;10060;48.274;12.214;2023-04-03T13:55:03;3.10;;;2.30;;
19800;SDS011;10060;48.274;12.214;2023-04-03T13:58:20;3.13;;;2.40;;
19800;SDS011;10060;48.274;12.214;2023-04-03T14:01:23;3.20;;;2.67;;
19800;SDS011;10060;48.274;12.214;2023-04-03T14:04:26;2.63;;;2.10;;
19800;SDS011;10060;48.274;12.214;2023-04-03T14:07:31;3.47;;;2.40;;
19800;SDS011;10060;48.274;12.214;2023-04-03T14:10:33;3.77;;;2.10;;
19800;SDS011;10060;48.274;12.214;2023-04-03T14:13:36;2.77;;;2.40;;
19800;SDS011;10060;48.274;12.214;2023-04-03T14:16:39;2.77;;;2.23;;
19800;SDS011;10060;48.274;12.214;2023-04-03T14:19:42;4.07;;;2.63;;
19800;SDS011;10060;48.274;12.214;2023-04-03T14:22:46;3.33;;;2.17;;
19800;SDS011;10060;48.274;12.214;2023-04-03T14:25:48;3.27;;;2.10;;
19800;SDS011;10060;48.274;12.214;2023-04-03T14:28:51;2.83;;;2.10;;
19800;SDS011;10060;48.274;12.214;2023-04-03T14:31:53;3.40;;;2.20;;
19800;SDS011;10060;48.274;12.214;2023-04-03T14:34:56;3.47;;;2.10;;
19800;SDS011;10060;48.274;12.214;2023-04-03T14:37:59;2.97;;;2.67;;
19800;SDS011;10060;48.274;12.214;2023-04-03T14:41:01;2.33;;;2.03;;
19800;SDS011;10060;48.274;12.214;2023-04-03T14:44:03;3.13;;;2.27;;
19800;SDS011;10060;48.274;12.214;2023-04-03T14:47:08;2.80;;;2.60;;
19800;SDS011;10060;48.274;12.214;2023-04-03T14:50:12;2.13;;;1.90;;
19800;SDS011;10060;48.274;12.214;2023-04-03T14:53:17;3.57;;;2.37;;
19800;SDS011;10060;48.274;12.214;2023-04-03T14:56:23;3.93;;;2.00;;
19800;SDS011;10060;48.274;12.214;2023-04-03T14:59:25;2.60;;;2.20;;
19800;SDS011;10060;48.274;12.214;2023-04-03T15:02:29;5.53;;;2.50;;
19800;SDS011;10060;48.274;12.214;2023-04-03T15:05:31;3.77;;;2.20;;
19800;SDS011;10060;48.274;12.214;2023-04-03T15:08:35;3.53;;;2.10;;
19800;SDS011;10060;48.274;12.214;2023-04-03T15:11:37;3.23;;;1.97;;
19800;SDS011;10060;48.274;12.214;2023-04-03T15:14:39;3.97;;;2.30;;
19800;SDS011;10060;48.274;12.214;2023-04-03T15:17:41;2.87;;;2.10;;
19800;SDS011;10060;48.274;12.214;2023-04-03T15:20:43;4.13;;;2.50;;
19800;SDS011;10060;48.274;12.214;2023-04-03T15:23:47;3.10;;;2.00;;
19800;SDS011;10060;48.274;12.214;2023-04-03T15:26:49;3.00;;;2.20;;
19800;SDS011;10060;48.274;12.214;2023-04-03T15:29:51;2.57;;;2.30;;
19800;SDS011;10060;48.274;12.214;2023-04-03T15:32:53;4.13;;;2.00;;
19800;SDS011;10060;48.274;12.214;2023-04-03T15:35:56;2.57;;;2.37;;
19800;SDS011;10060;48.274;12.214;2023-04-03T15:38:59;3.37;;;2.47;;
19800;SDS011;10060;48.274;12.214;2023-04-03T15:42:01;2.50;;;2.17;;
19800;SDS011;10060;48.274;12.214;2023-04-03T15:45:06;3.23;;;2.47;;
19800;SDS011;10060;48.274;12.214;2023-04-03T15:48:08;4.50;;;2.63;;
19800;SDS011;10060;48.274;12.214;2023-04-03T15:51:11;3.67;;;2.50;;
19800;SDS011;10060;48.274;12.214;2023-04-03T15:54:14;2.53;;;2.33;;
19800;SDS011;10060;48.274;12.214;2023-04-03T15:57:16;4.57;;;2.43;;
19800;SDS011;10060;48.274;12.214;2023-04-03T16:00:19;4.37;;;2.50;;
19800;SDS011;10060;48.274;12.214;2023-04-03T16:03:21;3.77;;;2.60;;
19800;SDS011;10060;48.274;12.214;2023-04-03T16:06:24;2.63;;;2.30;;
19800;SDS011;10060;48.274;12.214;2023-04-03T16:09:30;3.10;;;2.70;;
19800;SDS011;10060;48.274;12.214;2023-04-03T16:12:33;3.00;;;2.57;;
19800;SDS011;10060;48.274;12.214;2023-04-03T16:15:35;5.47;;;3.00;;
19800;SDS011;10060;48.274;12.214;2023-04-03T16:18:37;3.07;;;2.87;;
19800;SDS011;10060;48.274;12.214;2023-04-03T16:21:39;3.37;;;2.90;;
19800;SDS011;10060;48.274;12.214;2023-04-03T16:24:43;5.27;;;2.73;;
19800;SDS011;10060;48.274;12.214;2023-04-03T16:27:45;3.63;;;2.80;;
19800;SDS011;10060;48.274;12.214;2023-04-03T16:30:47;3.17;;;2.37;;
19800;SDS011;10060;48.274;12.214;2023-04-03T16:33:50;4.30;;;2.70;;
19800;SDS011;10060;48.274;12.214;2023-04-03T16:36:52;3.77;;;2.80;;
19800;SDS011;10060;48.274;12.214;2023-04-03T16:39:55;3.53;;;3.10;;
19800;SDS011;10060;48.274;12.214;2023-04-03T16:42:58;3.90;;;3.00;;
19800;SDS011;10060;48.274;12.214;2023-04-03T16:46:00;4.30;;;2.93;;
19800;SDS011;10060;48.274;12.214;2023-04-03T16:49:02;4.00;;;2.67;;
19800;SDS011;10060;48.274;12.214;2023-04-03T16:52:04;3.57;;;2.93;;
19800;SDS011;10060;48.274;12.214;2023-04-03T16:55:08;3.40;;;2.80;;
19800;SDS011;10060;48.274;12.214;2023-04-03T16:58:10;4.27;;;3.30;;
19800;SDS011;10060;48.274;12.214;2023-04-03T17:01:13;4.20;;;3.30;;
19800;SDS011;10060;48.274;12.214;2023-04-03T17:04:15;4.30;;;3.17;;
19800;SDS011;10060;48.274;12.214;2023-04-03T17:07:18;3.40;;;3.10;;
19800;SDS011;10060;48.274;12.214;2023-04-03T17:10:21;7.33;;;3.27;;
19800;SDS011;10060;48.274;12.214;2023-04-03T17:13:23;4.77;;;2.80;;
19800;SDS011;10060;48.274;12.214;2023-04-03T17:16:34;5.80;;;3.30;;
19800;SDS011;10060;48.274;12.214;2023-04-03T17:19:36;3.83;;;3.40;;
19800;SDS011;10060;48.274;12.214;2023-04-03T17:22:39;4.57;;;3.00;;
19800;SDS011;10060;48.274;12.214;2023-04-03T17:25:43;4.00;;;3.13;;
19800;SDS011;10060;48.274;12.214;2023-04-03T17:28:45;6.17;;;3.97;;
19800;SDS011;10060;48.274;12.214;2023-04-03T17:31:47;4.80;;;3.37;;
19800;SDS011;10060;48.274;12.214;2023-04-03T17:34:49;3.30;;;3.00;;
19800;SDS011;10060;48.274;12.214;2023-04-03T17:37:51;4.17;;;3.00;;
19800;SDS011;10060;48.274;12.214;2023-04-03T17:40:56;9.03;;;3.37;;
19800;SDS011;10060;48.274;12.214;2023-04-03T17:43:58;4.83;;;3.50;;
19800;SDS011;10060;48.274;12.214;2023-04-03T17:47:00;6.07;;;3.90;;
19800;SDS011;10060;48.274;12.214;2023-04-03T17:50:03;8.87;;;3.70;;
19800;SDS011;10060;48.274;12.214;2023-04-03T17:53:05;4.47;;;3.77;;
19800;SDS011;10060;48.274;12.214;2023-04-03T17:56:10;7.63;;;4.10;;
19800;SDS011;10060;48.274;12.214;2023-04-03T17:59:12;3.50;;;3.20;;
19800;SDS011;10060;48.274;12.214;2023-04-03T18:02:14;3.77;;;3.37;;
19800;SDS011;10060;48.274;12.214;2023-04-03T18:05:17;3.83;;;3.50;;
19800;SDS011;10060;48.274;12.214;2023-04-03T18:08:19;5.00;;;3.33;;
19800;SDS011;10060;48.274;12.214;2023-04-03T18:11:24;4.30;;;3.90;;
19800;SDS011;10060;48.274;12.214;2023-04-03T18:14:27;4.83;;;4.07;;
19800;SDS011;10060;48.274;12.214;2023-04-03T18:17:29;3.77;;;3.43;;